Погода Заборчена 2 недели

Подкарпатское воеводство, Польша

25 мая-07 июня
  • 25мая
    Сегодня
    +12°
    +26°
    Облачно с прояснениями
    ВремяПогодаТемператураВлажностьДавлениеВетер, м/сВероятность осадков
    02:00Небольшая облачность+15°C85 %750 мм2.1 м/с2 %
    05:00Ясно и безоблачно+13°C91 %750 мм1.5 м/с2 %
    08:00Облачно с прояснениями+19°C73 %750 мм1.1 м/с2 %
    11:00Облачно с прояснениями+23°C50 %751 мм2.0 м/с1 %
    14:00Облачно с прояснениями+25°C42 %750 мм2.6 м/с23 %
    17:00Облачно с прояснениями+24°C49 %749 мм4.0 м/с43 %
    20:00Небольшая облачность+21°C71 %750 мм1.9 м/с13 %
    23:00Ясно и безоблачно+17°C80 %750 мм2.3 м/с2 %
  • 26мая
    Воскресенье
    +11°
    +27°
    Практически безоблачно
    ВремяПогодаТемператураВлажностьДавлениеВетер, м/сВероятность осадков
    02:00Ясно и безоблачно+14°C90 %750 мм2.1 м/с2 %
    05:00Ясно и безоблачно+13°C94 %750 мм1.7 м/с2 %
    08:00Ясно и безоблачно+18°C77 %750 мм0.6 м/с2 %
    11:00Ясно и безоблачно+25°C47 %751 мм1.4 м/с2 %
    14:00Практически безоблачно+26°C40 %750 мм2.8 м/с3 %
    17:00Практически безоблачно+25°C29 %749 мм3.8 м/с9 %
    20:00Облачно с прояснениями+21°C47 %750 мм2.5 м/с8 %
    23:00Практически безоблачно+17°C56 %750 мм2.5 м/с2 %
  • 27мая
    Понедельник
    +10°
    +26°
    Ясно и безоблачно
    ВремяПогодаТемператураВлажностьДавлениеВетер, м/сВероятность осадков
    02:00Ясно и безоблачно+14°C66 %750 мм2.4 м/с2 %
    05:00Ясно и безоблачно+11°C80 %750 мм2.1 м/с2 %
    08:00Облачно с прояснениями+17°C64 %751 мм1.1 м/с2 %
    11:00Практически безоблачно+25°C31 %751 мм3.3 м/с2 %
    14:00Ясно и безоблачно+26°C23 %750 мм4.7 м/с2 %
    17:00Ясно и безоблачно+25°C26 %749 мм4.7 м/с2 %
    20:00Ясно и безоблачно+21°C41 %749 мм2.7 м/с2 %
    23:00Ясно и безоблачно+16°C55 %749 мм2.2 м/с2 %
  • 28мая
    Вторник
    +12°
    +25°
    Облачно с прояснениями
    ВремяПогодаТемператураВлажностьДавлениеВетер, м/сВероятность осадков
    02:00Небольшая облачность+13°C67 %749 мм2.1 м/с2 %
    05:00Ясно и безоблачно+11°C76 %748 мм1.8 м/с2 %
    08:00Практически безоблачно+18°C60 %748 мм0.9 м/с2 %
    11:00Небольшая облачность+24°C32 %748 мм3.6 м/с2 %
    14:00Облачно с прояснениями+25°C28 %747 мм4.1 м/с2 %
    17:00Небольшая облачность+25°C29 %746 мм3.4 м/с4 %
    20:00Небольшая облачность+23°C41 %745 мм1.0 м/с7 %
    23:00Облачно с прояснениями+19°C44 %746 мм2.5 м/с2 %
  • 29мая
    Среда
    +12°
    +24°
    Небольшая облачность
    ВремяПогодаТемператураВлажностьДавлениеВетер, м/сВероятность осадков
    02:00Практически безоблачно+14°C70 %746 мм1.9 м/с2 %
    05:00Ясно и безоблачно+13°C75 %745 мм1.9 м/с2 %
    08:00Практически безоблачно+18°C61 %746 мм1.2 м/с2 %
    11:00Ясно и безоблачно+24°C39 %745 мм1.9 м/с11 %
    14:00Небольшая облачность+23°C37 %744 мм1.2 м/с28 %
    17:00Практически безоблачно+24°C37 %743 мм1.3 м/с44 %
    20:00Практически безоблачно+21°C54 %743 мм1.5 м/с18 %
    23:00Практически безоблачно+17°C72 %743 мм2.5 м/с12 %
Мы используем cookies
Соглашаюсь